sensor_id;sensor_type;location;lat;lon;timestamp;temperature;humidity
19363;DHT22;9817;50.80926400;5.16316200;2023-05-01T00:00:04;15.60;99.90
19363;DHT22;9817;50.80926400;5.16316200;2023-05-01T00:02:30;15.70;99.90
19363;DHT22;9817;50.80926400;5.16316200;2023-05-01T00:04:56;15.80;99.90
19363;DHT22;9817;50.80926400;5.16316200;2023-05-01T00:07:22;15.80;99.90
19363;DHT22;9817;50.80926400;5.16316200;2023-05-01T00:09:50;15.80;99.90
19363;DHT22;9817;50.80926400;5.16316200;2023-05-01T00:12:16;15.80;99.90
19363;DHT22;9817;50.80926400;5.16316200;2023-05-01T00:14:42;15.80;99.90
19363;DHT22;9817;50.80926400;5.16316200;2023-05-01T00:17:07;15.80;99.90
19363;DHT22;9817;50.80926400;5.16316200;2023-05-01T00:19:33;15.60;99.90
19363;DHT22;9817;50.80926400;5.16316200;2023-05-01T00:21:59;15.50;99.90
19363;DHT22;9817;50.80926400;5.16316200;2023-05-01T00:24:24;15.50;99.90
19363;DHT22;9817;50.80926400;5.16316200;2023-05-01T00:26:50;15.40;99.90
19363;DHT22;9817;50.80926400;5.16316200;2023-05-01T00:29:15;15.20;99.90
19363;DHT22;9817;50.80926400;5.16316200;2023-05-01T00:31:42;15.30;99.90
19363;DHT22;9817;50.80926400;5.16316200;2023-05-01T00:34:08;15.30;99.90
19363;DHT22;9817;50.80926400;5.16316200;2023-05-01T00:36:34;15.30;99.90
19363;DHT22;9817;50.80926400;5.16316200;2023-05-01T00:38:59;15.30;99.90
19363;DHT22;9817;50.80926400;5.16316200;2023-05-01T00:41:25;15.30;99.90
19363;DHT22;9817;50.80926400;5.16316200;2023-05-01T00:43:51;15.20;99.90
19363;DHT22;9817;50.80926400;5.16316200;2023-05-01T00:46:17;15.20;99.90
19363;DHT22;9817;50.80926400;5.16316200;2023-05-01T00:48:43;15.20;99.90
19363;DHT22;9817;50.80926400;5.16316200;2023-05-01T00:51:09;15.10;99.90
19363;DHT22;9817;50.80926400;5.16316200;2023-05-01T00:53:36;14.80;99.90
19363;DHT22;9817;50.80926400;5.16316200;2023-05-01T00:56:04;14.90;99.90
19363;DHT22;9817;50.80926400;5.16316200;2023-05-01T00:58:30;14.80;99.90
19363;DHT22;9817;50.80926400;5.16316200;2023-05-01T01:00:56;14.70;99.90
19363;DHT22;9817;50.80926400;5.16316200;2023-05-01T01:03:22;14.80;99.90
19363;DHT22;9817;50.80926400;5.16316200;2023-05-01T01:05:56;15.00;99.90
19363;DHT22;9817;50.80926400;5.16316200;2023-05-01T01:08:57;15.00;99.90
19363;DHT22;9817;50.80926400;5.16316200;2023-05-01T01:11:45;15.10;99.90
19363;DHT22;9817;50.80926400;5.16316200;2023-05-01T01:14:24;15.00;99.90
19363;DHT22;9817;50.80926400;5.16316200;2023-05-01T01:17:10;15.10;99.90
19363;DHT22;9817;50.80926400;5.16316200;2023-05-01T01:20:20;15.10;99.90
19363;DHT22;9817;50.80926400;5.16316200;2023-05-01T01:22:56;15.30;99.90
19363;DHT22;9817;50.80926400;5.16316200;2023-05-01T01:25:38;15.40;99.90
19363;DHT22;9817;50.80926400;5.16316200;2023-05-01T01:28:28;15.40;99.90
19363;DHT22;9817;50.80926400;5.16316200;2023-05-01T01:31:02;15.30;99.90
19363;DHT22;9817;50.80926400;5.16316200;2023-05-01T01:34:00;15.30;99.90
19363;DHT22;9817;50.80926400;5.16316200;2023-05-01T01:36:43;15.30;99.90
19363;DHT22;9817;50.80926400;5.16316200;2023-05-01T01:41:50;15.00;99.90
19363;DHT22;9817;50.80926400;5.16316200;2023-05-01T01:44:37;14.70;99.90
19363;DHT22;9817;50.80926400;5.16316200;2023-05-01T01:47:06;14.40;99.90
19363;DHT22;9817;50.80926400;5.16316200;2023-05-01T01:49:34;14.30;99.90
19363;DHT22;9817;50.80926400;5.16316200;2023-05-01T01:52:01;14.30;99.90
19363;DHT22;9817;50.80926400;5.16316200;2023-05-01T01:54:32;14.40;99.90
19363;DHT22;9817;50.80926400;5.16316200;2023-05-01T01:57:01;14.30;99.90
19363;DHT22;9817;50.80926400;5.16316200;2023-05-01T01:59:30;14.40;99.90
19363;DHT22;9817;50.80926400;5.16316200;2023-05-01T02:01:58;14.50;99.90
19363;DHT22;9817;50.80926400;5.16316200;2023-05-01T02:04:26;14.30;99.90
19363;DHT22;9817;50.80926400;5.16316200;2023-05-01T02:06:55;14.30;99.90
19363;DHT22;9817;50.80926400;5.16316200;2023-05-01T02:09:22;14.50;99.90
19363;DHT22;9817;50.80926400;5.16316200;2023-05-01T02:11:49;14.70;99.90
19363;DHT22;9817;50.80926400;5.16316200;2023-05-01T02:14:17;14.80;99.90
19363;DHT22;9817;50.80926400;5.16316200;2023-05-01T02:16:44;15.00;99.90
19363;DHT22;9817;50.80926400;5.16316200;2023-05-01T02:19:10;15.00;99.90
19363;DHT22;9817;50.80926400;5.16316200;2023-05-01T02:21:38;15.00;99.90
19363;DHT22;9817;50.80926400;5.16316200;2023-05-01T02:24:04;15.10;99.90
19363;DHT22;9817;50.80926400;5.16316200;2023-05-01T02:26:31;15.10;99.90
19363;DHT22;9817;50.80926400;5.16316200;2023-05-01T02:28:57;15.10;99.90
19363;DHT22;9817;50.80926400;5.16316200;2023-05-01T02:31:23;15.20;99.90
19363;DHT22;9817;50.80926400;5.16316200;2023-05-01T02:33:49;15.20;99.90
19363;DHT22;9817;50.80926400;5.16316200;2023-05-01T02:36:15;15.20;99.90
19363;DHT22;9817;50.80926400;5.16316200;2023-05-01T02:38:40;15.10;99.90
19363;DHT22;9817;50.80926400;5.16316200;2023-05-01T02:41:07;15.10;99.90
19363;DHT22;9817;50.80926400;5.16316200;2023-05-01T02:43:34;15.10;99.90
19363;DHT22;9817;50.80926400;5.16316200;2023-05-01T02:46:02;15.10;99.90
19363;DHT22;9817;50.80926400;5.16316200;2023-05-01T02:48:29;15.10;99.90
19363;DHT22;9817;50.80926400;5.16316200;2023-05-01T02:50:57;15.00;99.90
19363;DHT22;9817;50.80926400;5.16316200;2023-05-01T02:53:23;15.10;99.90
19363;DHT22;9817;50.80926400;5.16316200;2023-05-01T02:55:49;15.10;99.90
19363;DHT22;9817;50.80926400;5.16316200;2023-05-01T02:58:16;15.10;99.90
19363;DHT22;9817;50.80926400;5.16316200;2023-05-01T03:00:42;15.10;99.90
19363;DHT22;9817;50.80926400;5.16316200;2023-05-01T03:03:09;15.20;99.90
19363;DHT22;9817;50.80926400;5.16316200;2023-05-01T03:05:34;15.10;99.90
19363;DHT22;9817;50.80926400;5.16316200;2023-05-01T03:08:00;15.00;99.90
19363;DHT22;9817;50.80926400;5.16316200;2023-05-01T03:10:26;15.00;99.90
19363;DHT22;9817;50.80926400;5.16316200;2023-05-01T03:12:51;15.00;99.90
19363;DHT22;9817;50.80926400;5.16316200;2023-05-01T03:15:17;14.80;99.90
19363;DHT22;9817;50.80926400;5.16316200;2023-05-01T03:17:43;14.80;99.90
19363;DHT22;9817;50.80926400;5.16316200;2023-05-01T03:20:09;14.80;99.90
19363;DHT22;9817;50.80926400;5.16316200;2023-05-01T03:22:35;14.90;99.90
19363;DHT22;9817;50.80926400;5.16316200;2023-05-01T03:25:01;14.90;99.90
19363;DHT22;9817;50.80926400;5.16316200;2023-05-01T03:27:28;14.80;99.90
19363;DHT22;9817;50.80926400;5.16316200;2023-05-01T03:29:55;14.80;99.90
19363;DHT22;9817;50.80926400;5.16316200;2023-05-01T03:32:21;14.80;99.90
19363;DHT22;9817;50.80926400;5.16316200;2023-05-01T03:34:47;14.70;99.90
19363;DHT22;9817;50.80926400;5.16316200;2023-05-01T03:37:13;14.80;99.90
19363;DHT22;9817;50.80926400;5.16316200;2023-05-01T03:39:39;14.80;99.90
19363;DHT22;9817;50.80926400;5.16316200;2023-05-01T03:42:05;14.80;99.90
19363;DHT22;9817;50.80926400;5.16316200;2023-05-01T03:44:31;14.80;99.90
19363;DHT22;9817;50.80926400;5.16316200;2023-05-01T03:46:57;14.70;99.90
19363;DHT22;9817;50.80926400;5.16316200;2023-05-01T03:49:23;14.70;99.90
19363;DHT22;9817;50.80926400;5.16316200;2023-05-01T03:51:49;14.70;99.90
19363;DHT22;9817;50.80926400;5.16316200;2023-05-01T03:54:14;14.70;99.90
19363;DHT22;9817;50.80926400;5.16316200;2023-05-01T03:56:40;14.70;99.90
19363;DHT22;9817;50.80926400;5.16316200;2023-05-01T03:59:06;14.60;99.90
19363;DHT22;9817;50.80926400;5.16316200;2023-05-01T04:01:31;14.60;99.90
19363;DHT22;9817;50.80926400;5.16316200;2023-05-01T04:04:00;14.60;99.90
19363;DHT22;9817;50.80926400;5.16316200;2023-05-01T04:06:26;14.50;99.90
19363;DHT22;9817;50.80926400;5.16316200;2023-05-01T04:08:52;14.50;99.90
19363;DHT22;9817;50.80926400;5.16316200;2023-05-01T04:11:18;14.50;99.90
19363;DHT22;9817;50.80926400;5.16316200;2023-05-01T04:13:43;14.40;99.90
19363;DHT22;9817;50.80926400;5.16316200;2023-05-01T04:16:09;14.40;99.90
19363;DHT22;9817;50.80926400;5.16316200;2023-05-01T04:18:35;14.30;99.90
19363;DHT22;9817;50.80926400;5.16316200;2023-05-01T04:21:00;14.30;99.90
19363;DHT22;9817;50.80926400;5.16316200;2023-05-01T04:23:26;14.30;99.90
19363;DHT22;9817;50.80926400;5.16316200;2023-05-01T04:25:52;14.20;99.90
19363;DHT22;9817;50.80926400;5.16316200;2023-05-01T04:28:18;14.20;99.90
19363;DHT22;9817;50.80926400;5.16316200;2023-05-01T04:30:43;14.20;99.90
19363;DHT22;9817;50.80926400;5.16316200;2023-05-01T04:33:10;14.10;99.90
19363;DHT22;9817;50.80926400;5.16316200;2023-05-01T04:35:45;14.00;99.90
19363;DHT22;9817;50.80926400;5.16316200;2023-05-01T04:38:10;13.90;99.90
19363;DHT22;9817;50.80926400;5.16316200;2023-05-01T04:40:36;13.80;99.90
19363;DHT22;9817;50.80926400;5.16316200;2023-05-01T04:43:01;13.80;99.90
19363;DHT22;9817;50.80926400;5.16316200;2023-05-01T04:45:27;13.90;99.90
19363;DHT22;9817;50.80926400;5.16316200;2023-05-01T04:47:53;13.90;99.90
19363;DHT22;9817;50.80926400;5.16316200;2023-05-01T04:50:18;14.00;99.90
19363;DHT22;9817;50.80926400;5.16316200;2023-05-01T04:52:44;14.10;99.90
19363;DHT22;9817;50.80926400;5.16316200;2023-05-01T04:55:10;14.20;99.90
19363;DHT22;9817;50.80926400;5.16316200;2023-05-01T04:57:36;14.10;99.90
19363;DHT22;9817;50.80926400;5.16316200;2023-05-01T05:00:01;14.10;99.90
19363;DHT22;9817;50.80926400;5.16316200;2023-05-01T05:02:28;14.20;99.90
19363;DHT22;9817;50.80926400;5.16316200;2023-05-01T05:04:53;14.10;99.90
19363;DHT22;9817;50.80926400;5.16316200;2023-05-01T05:07:21;14.10;99.90
19363;DHT22;9817;50.80926400;5.16316200;2023-05-01T05:09:46;14.10;99.90
19363;DHT22;9817;50.80926400;5.16316200;2023-05-01T05:12:12;14.20;99.90
19363;DHT22;9817;50.80926400;5.16316200;2023-05-01T05:14:39;14.10;99.90
19363;DHT22;9817;50.80926400;5.16316200;2023-05-01T05:17:05;13.90;99.90
19363;DHT22;9817;50.80926400;5.16316200;2023-05-01T05:19:31;13.80;99.90
19363;DHT22;9817;50.80926400;5.16316200;2023-05-01T05:21:57;13.90;99.90
19363;DHT22;9817;50.80926400;5.16316200;2023-05-01T05:24:23;14.00;99.90
19363;DHT22;9817;50.80926400;5.16316200;2023-05-01T05:26:48;14.00;99.90
19363;DHT22;9817;50.80926400;5.16316200;2023-05-01T05:29:15;14.00;99.90
19363;DHT22;9817;50.80926400;5.16316200;2023-05-01T05:31:40;13.90;99.90
19363;DHT22;9817;50.80926400;5.16316200;2023-05-01T05:34:06;13.90;99.90
19363;DHT22;9817;50.80926400;5.16316200;2023-05-01T05:36:31;13.90;99.90
19363;DHT22;9817;50.80926400;5.16316200;2023-05-01T05:38:58;14.00;99.90
19363;DHT22;9817;50.80926400;5.16316200;2023-05-01T05:41:24;14.20;99.90
19363;DHT22;9817;50.80926400;5.16316200;2023-05-01T05:43:49;14.40;99.90
19363;DHT22;9817;50.80926400;5.16316200;2023-05-01T05:46:15;14.50;99.90
19363;DHT22;9817;50.80926400;5.16316200;2023-05-01T05:48:40;14.50;99.90
19363;DHT22;9817;50.80926400;5.16316200;2023-05-01T05:51:06;14.50;99.90
19363;DHT22;9817;50.80926400;5.16316200;2023-05-01T05:53:32;14.30;99.90
19363;DHT22;9817;50.80926400;5.16316200;2023-05-01T05:55:57;14.30;99.90
19363;DHT22;9817;50.80926400;5.16316200;2023-05-01T05:58:23;14.40;99.90
19363;DHT22;9817;50.80926400;5.16316200;2023-05-01T06:00:49;14.50;99.90
19363;DHT22;9817;50.80926400;5.16316200;2023-05-01T06:03:15;14.50;99.90
19363;DHT22;9817;50.80926400;5.16316200;2023-05-01T06:05:44;14.60;99.90
19363;DHT22;9817;50.80926400;5.16316200;2023-05-01T06:08:10;14.70;99.90
19363;DHT22;9817;50.80926400;5.16316200;2023-05-01T06:10:36;14.90;99.90
19363;DHT22;9817;50.80926400;5.16316200;2023-05-01T06:13:04;14.90;99.90
19363;DHT22;9817;50.80926400;5.16316200;2023-05-01T06:15:32;15.10;99.90
19363;DHT22;9817;50.80926400;5.16316200;2023-05-01T06:17:58;15.40;99.90
19363;DHT22;9817;50.80926400;5.16316200;2023-05-01T06:20:23;15.60;99.90
19363;DHT22;9817;50.80926400;5.16316200;2023-05-01T06:22:49;15.70;99.90
19363;DHT22;9817;50.80926400;5.16316200;2023-05-01T06:25:15;15.90;99.90
19363;DHT22;9817;50.80926400;5.16316200;2023-05-01T06:27:41;15.90;99.90
19363;DHT22;9817;50.80926400;5.16316200;2023-05-01T06:30:07;16.00;99.90
19363;DHT22;9817;50.80926400;5.16316200;2023-05-01T06:32:34;16.10;99.90
19363;DHT22;9817;50.80926400;5.16316200;2023-05-01T06:34:59;16.20;99.90
19363;DHT22;9817;50.80926400;5.16316200;2023-05-01T06:37:25;16.20;99.90
19363;DHT22;9817;50.80926400;5.16316200;2023-05-01T06:39:51;16.20;99.90
19363;DHT22;9817;50.80926400;5.16316200;2023-05-01T06:42:16;16.30;99.90
19363;DHT22;9817;50.80926400;5.16316200;2023-05-01T06:44:42;16.50;99.90
19363;DHT22;9817;50.80926400;5.16316200;2023-05-01T06:47:08;16.70;99.90
19363;DHT22;9817;50.80926400;5.16316200;2023-05-01T06:49:34;17.00;99.90
19363;DHT22;9817;50.80926400;5.16316200;2023-05-01T06:52:00;17.10;99.90
19363;DHT22;9817;50.80926400;5.16316200;2023-05-01T06:54:26;17.30;99.90
19363;DHT22;9817;50.80926400;5.16316200;2023-05-01T06:56:54;17.20;99.90
19363;DHT22;9817;50.80926400;5.16316200;2023-05-01T06:59:20;17.40;99.90
19363;DHT22;9817;50.80926400;5.16316200;2023-05-01T07:01:46;17.60;99.90
19363;DHT22;9817;50.80926400;5.16316200;2023-05-01T07:04:11;17.90;99.90
19363;DHT22;9817;50.80926400;5.16316200;2023-05-01T07:06:37;18.10;99.90
19363;DHT22;9817;50.80926400;5.16316200;2023-05-01T07:09:06;18.10;99.90
19363;DHT22;9817;50.80926400;5.16316200;2023-05-01T07:11:32;18.20;99.90
19363;DHT22;9817;50.80926400;5.16316200;2023-05-01T07:13:59;18.00;99.90
19363;DHT22;9817;50.80926400;5.16316200;2023-05-01T07:16:25;18.10;99.90
19363;DHT22;9817;50.80926400;5.16316200;2023-05-01T07:18:51;18.50;99.90
19363;DHT22;9817;50.80926400;5.16316200;2023-05-01T07:21:16;18.90;99.90
19363;DHT22;9817;50.80926400;5.16316200;2023-05-01T07:23:42;18.90;99.90
19363;DHT22;9817;50.80926400;5.16316200;2023-05-01T07:26:08;19.20;99.90
19363;DHT22;9817;50.80926400;5.16316200;2023-05-01T07:28:33;19.40;99.90
19363;DHT22;9817;50.80926400;5.16316200;2023-05-01T07:30:59;19.40;99.90
19363;DHT22;9817;50.80926400;5.16316200;2023-05-01T07:33:26;19.60;99.90
19363;DHT22;9817;50.80926400;5.16316200;2023-05-01T07:35:52;19.70;99.90
19363;DHT22;9817;50.80926400;5.16316200;2023-05-01T07:38:17;19.80;99.90
19363;DHT22;9817;50.80926400;5.16316200;2023-05-01T07:40:43;19.90;99.90
19363;DHT22;9817;50.80926400;5.16316200;2023-05-01T07:43:09;20.10;99.90
19363;DHT22;9817;50.80926400;5.16316200;2023-05-01T07:45:38;20.40;99.90
19363;DHT22;9817;50.80926400;5.16316200;2023-05-01T07:48:04;20.10;99.90
19363;DHT22;9817;50.80926400;5.16316200;2023-05-01T07:50:30;20.10;99.90
19363;DHT22;9817;50.80926400;5.16316200;2023-05-01T07:52:57;20.30;99.90
19363;DHT22;9817;50.80926400;5.16316200;2023-05-01T07:55:23;20.70;99.90
19363;DHT22;9817;50.80926400;5.16316200;2023-05-01T07:57:49;21.00;99.90
19363;DHT22;9817;50.80926400;5.16316200;2023-05-01T08:00:15;21.40;99.90
19363;DHT22;9817;50.80926400;5.16316200;2023-05-01T08:02:41;21.70;99.90
19363;DHT22;9817;50.80926400;5.16316200;2023-05-01T08:05:08;22.10;99.90
19363;DHT22;9817;50.80926400;5.16316200;2023-05-01T08:07:33;22.30;99.90
19363;DHT22;9817;50.80926400;5.16316200;2023-05-01T08:09:59;22.50;99.90
19363;DHT22;9817;50.80926400;5.16316200;2023-05-01T08:12:25;23.40;99.90
19363;DHT22;9817;50.80926400;5.16316200;2023-05-01T08:14:51;24.40;99.90
19363;DHT22;9817;50.80926400;5.16316200;2023-05-01T08:17:17;25.20;99.90
19363;DHT22;9817;50.80926400;5.16316200;2023-05-01T08:19:43;25.90;99.90
19363;DHT22;9817;50.80926400;5.16316200;2023-05-01T08:22:09;26.00;99.90
19363;DHT22;9817;50.80926400;5.16316200;2023-05-01T08:24:36;25.60;99.90
19363;DHT22;9817;50.80926400;5.16316200;2023-05-01T08:27:01;25.50;99.90
19363;DHT22;9817;50.80926400;5.16316200;2023-05-01T08:29:27;26.10;99.90
19363;DHT22;9817;50.80926400;5.16316200;2023-05-01T08:31:55;26.50;99.90
19363;DHT22;9817;50.80926400;5.16316200;2023-05-01T08:34:21;26.80;98.20
19363;DHT22;9817;50.80926400;5.16316200;2023-05-01T08:36:47;27.40;97.20
19363;DHT22;9817;50.80926400;5.16316200;2023-05-01T08:39:12;27.60;96.20
19363;DHT22;9817;50.80926400;5.16316200;2023-05-01T08:41:40;26.90;95.70
19363;DHT22;9817;50.80926400;5.16316200;2023-05-01T08:44:09;26.00;96.80
19363;DHT22;9817;50.80926400;5.16316200;2023-05-01T08:46:57;25.80;97.20
19363;DHT22;9817;50.80926400;5.16316200;2023-05-01T08:49:31;26.50;97.40
19363;DHT22;9817;50.80926400;5.16316200;2023-05-01T08:51:58;26.80;95.90
19363;DHT22;9817;50.80926400;5.16316200;2023-05-01T08:54:26;27.80;95.20
19363;DHT22;9817;50.80926400;5.16316200;2023-05-01T08:56:53;28.60;93.00
19363;DHT22;9817;50.80926400;5.16316200;2023-05-01T08:59:21;29.00;91.90
19363;DHT22;9817;50.80926400;5.16316200;2023-05-01T09:01:49;28.80;91.10
19363;DHT22;9817;50.80926400;5.16316200;2023-05-01T09:04:16;28.80;91.00
19363;DHT22;9817;50.80926400;5.16316200;2023-05-01T09:06:42;29.80;90.10
19363;DHT22;9817;50.80926400;5.16316200;2023-05-01T09:09:09;30.30;87.30
19363;DHT22;9817;50.80926400;5.16316200;2023-05-01T09:11:35;30.60;84.20
19363;DHT22;9817;50.80926400;5.16316200;2023-05-01T09:14:02;30.60;83.40
19363;DHT22;9817;50.80926400;5.16316200;2023-05-01T09:16:32;30.70;83.80
19363;DHT22;9817;50.80926400;5.16316200;2023-05-01T09:18:58;31.80;81.10
19363;DHT22;9817;50.80926400;5.16316200;2023-05-01T09:21:25;32.70;77.90
19363;DHT22;9817;50.80926400;5.16316200;2023-05-01T09:23:51;32.30;76.40
19363;DHT22;9817;50.80926400;5.16316200;2023-05-01T09:26:18;31.80;77.30
19363;DHT22;9817;50.80926400;5.16316200;2023-05-01T09:28:47;30.80;78.00
19363;DHT22;9817;50.80926400;5.16316200;2023-05-01T09:31:26;30.50;78.40
19363;DHT22;9817;50.80926400;5.16316200;2023-05-01T09:36:27;29.10;84.00
19363;DHT22;9817;50.80926400;5.16316200;2023-05-01T09:38:54;28.80;82.20
19363;DHT22;9817;50.80926400;5.16316200;2023-05-01T09:41:20;28.20;83.10
19363;DHT22;9817;50.80926400;5.16316200;2023-05-01T09:43:54;27.80;84.60
19363;DHT22;9817;50.80926400;5.16316200;2023-05-01T09:46:21;27.40;86.80
19363;DHT22;9817;50.80926400;5.16316200;2023-05-01T09:48:58;27.20;86.50
19363;DHT22;9817;50.80926400;5.16316200;2023-05-01T09:53:57;26.40;90.20
19363;DHT22;9817;50.80926400;5.16316200;2023-05-01T09:56:25;26.20;90.60
19363;DHT22;9817;50.80926400;5.16316200;2023-05-01T09:58:51;25.60;90.80
19363;DHT22;9817;50.80926400;5.16316200;2023-05-01T10:01:18;25.60;91.30
19363;DHT22;9817;50.80926400;5.16316200;2023-05-01T10:03:44;25.60;91.10
19363;DHT22;9817;50.80926400;5.16316200;2023-05-01T10:06:10;25.40;91.50
19363;DHT22;9817;50.80926400;5.16316200;2023-05-01T10:08:47;25.40;91.90
19363;DHT22;9817;50.80926400;5.16316200;2023-05-01T10:11:13;25.60;91.80
19363;DHT22;9817;50.80926400;5.16316200;2023-05-01T10:13:38;25.40;91.60
19363;DHT22;9817;50.80926400;5.16316200;2023-05-01T10:16:05;25.00;92.00
19363;DHT22;9817;50.80926400;5.16316200;2023-05-01T10:18:35;24.60;92.20
19363;DHT22;9817;50.80926400;5.16316200;2023-05-01T10:21:03;24.30;92.20
19363;DHT22;9817;50.80926400;5.16316200;2023-05-01T10:23:29;23.90;93.50
19363;DHT22;9817;50.80926400;5.16316200;2023-05-01T10:25:55;23.90;92.70
19363;DHT22;9817;50.80926400;5.16316200;2023-05-01T10:28:21;23.80;93.10
19363;DHT22;9817;50.80926400;5.16316200;2023-05-01T10:30:50;23.50;93.80
19363;DHT22;9817;50.80926400;5.16316200;2023-05-01T10:33:16;23.90;93.50
19363;DHT22;9817;50.80926400;5.16316200;2023-05-01T10:35:48;23.90;93.30
19363;DHT22;9817;50.80926400;5.16316200;2023-05-01T10:38:24;24.00;93.70
19363;DHT22;9817;50.80926400;5.16316200;2023-05-01T10:40:50;23.90;92.80
19363;DHT22;9817;50.80926400;5.16316200;2023-05-01T10:43:23;24.10;93.40
19363;DHT22;9817;50.80926400;5.16316200;2023-05-01T10:45:51;24.30;92.80
19363;DHT22;9817;50.80926400;5.16316200;2023-05-01T10:51:10;24.00;92.60
19363;DHT22;9817;50.80926400;5.16316200;2023-05-01T10:53:39;23.90;93.00
19363;DHT22;9817;50.80926400;5.16316200;2023-05-01T10:59:03;24.40;92.40
19363;DHT22;9817;50.80926400;5.16316200;2023-05-01T11:03:57;24.80;92.20
19363;DHT22;9817;50.80926400;5.16316200;2023-05-01T11:06:23;24.60;92.20
19363;DHT22;9817;50.80926400;5.16316200;2023-05-01T11:08:49;24.70;92.40
19363;DHT22;9817;50.80926400;5.16316200;2023-05-01T11:19:06;24.50;92.10
19363;DHT22;9817;50.80926400;5.16316200;2023-05-01T11:21:34;24.60;92.90
19363;DHT22;9817;50.80926400;5.16316200;2023-05-01T11:24:01;24.90;93.80
19363;DHT22;9817;50.80926400;5.16316200;2023-05-01T11:26:28;24.50;92.30
19363;DHT22;9817;50.80926400;5.16316200;2023-05-01T11:28:56;24.50;92.50
19363;DHT22;9817;50.80926400;5.16316200;2023-05-01T11:31:22;24.40;91.90
19363;DHT22;9817;50.80926400;5.16316200;2023-05-01T11:33:48;24.20;93.30
19363;DHT22;9817;50.80926400;5.16316200;2023-05-01T11:36:14;24.60;91.70
19363;DHT22;9817;50.80926400;5.16316200;2023-05-01T11:38:50;24.90;92.60
19363;DHT22;9817;50.80926400;5.16316200;2023-05-01T11:41:19;24.70;93.00
19363;DHT22;9817;50.80926400;5.16316200;2023-05-01T11:43:52;25.00;92.30
19363;DHT22;9817;50.80926400;5.16316200;2023-05-01T11:46:25;25.10;92.80
19363;DHT22;9817;50.80926400;5.16316200;2023-05-01T11:48:54;24.70;92.80
19363;DHT22;9817;50.80926400;5.16316200;2023-05-01T11:51:23;24.80;94.00
19363;DHT22;9817;50.80926400;5.16316200;2023-05-01T11:56:29;24.50;93.70
19363;DHT22;9817;50.80926400;5.16316200;2023-05-01T11:58:57;24.40;94.10
19363;DHT22;9817;50.80926400;5.16316200;2023-05-01T12:01:39;24.00;94.20
19363;DHT22;9817;50.80926400;5.16316200;2023-05-01T12:04:06;24.00;94.30
19363;DHT22;9817;50.80926400;5.16316200;2023-05-01T12:09:16;23.70;95.60
19363;DHT22;9817;50.80926400;5.16316200;2023-05-01T12:11:42;23.40;95.40
19363;DHT22;9817;50.80926400;5.16316200;2023-05-01T12:14:08;22.90;96.40
19363;DHT22;9817;50.80926400;5.16316200;2023-05-01T12:16:35;22.80;96.60
19363;DHT22;9817;50.80926400;5.16316200;2023-05-01T12:19:02;23.10;96.20
19363;DHT22;9817;50.80926400;5.16316200;2023-05-01T12:21:28;23.20;96.90
19363;DHT22;9817;50.80926400;5.16316200;2023-05-01T12:23:54;23.00;96.90
19363;DHT22;9817;50.80926400;5.16316200;2023-05-01T12:26:24;22.90;96.80
19363;DHT22;9817;50.80926400;5.16316200;2023-05-01T12:28:56;22.90;97.10
19363;DHT22;9817;50.80926400;5.16316200;2023-05-01T12:31:23;22.30;98.00
19363;DHT22;9817;50.80926400;5.16316200;2023-05-01T12:33:53;21.90;97.70
19363;DHT22;9817;50.80926400;5.16316200;2023-05-01T12:36:21;21.80;98.60
19363;DHT22;9817;50.80926400;5.16316200;2023-05-01T12:38:59;21.70;99.00
19363;DHT22;9817;50.80926400;5.16316200;2023-05-01T12:44:00;21.80;98.10
19363;DHT22;9817;50.80926400;5.16316200;2023-05-01T12:46:26;21.90;98.00
19363;DHT22;9817;50.80926400;5.16316200;2023-05-01T12:48:52;22.10;97.20
19363;DHT22;9817;50.80926400;5.16316200;2023-05-01T12:51:19;22.10;97.00
19363;DHT22;9817;50.80926400;5.16316200;2023-05-01T12:53:46;22.10;96.70
19363;DHT22;9817;50.80926400;5.16316200;2023-05-01T12:56:23;22.40;97.60
19363;DHT22;9817;50.80926400;5.16316200;2023-05-01T12:58:50;22.80;96.30
19363;DHT22;9817;50.80926400;5.16316200;2023-05-01T13:01:24;22.80;95.90
19363;DHT22;9817;50.80926400;5.16316200;2023-05-01T13:03:51;22.30;95.30
19363;DHT22;9817;50.80926400;5.16316200;2023-05-01T13:06:17;22.50;96.30
19363;DHT22;9817;50.80926400;5.16316200;2023-05-01T13:08:42;22.40;95.60
19363;DHT22;9817;50.80926400;5.16316200;2023-05-01T13:11:16;22.30;94.90
19363;DHT22;9817;50.80926400;5.16316200;2023-05-01T13:13:45;22.70;94.10
19363;DHT22;9817;50.80926400;5.16316200;2023-05-01T13:16:15;22.70;93.40
19363;DHT22;9817;50.80926400;5.16316200;2023-05-01T13:18:59;22.90;94.30
19363;DHT22;9817;50.80926400;5.16316200;2023-05-01T13:21:25;23.20;93.50
19363;DHT22;9817;50.80926400;5.16316200;2023-05-01T13:23:54;23.60;94.00
19363;DHT22;9817;50.80926400;5.16316200;2023-05-01T13:26:27;23.60;94.80
19363;DHT22;9817;50.80926400;5.16316200;2023-05-01T13:28:54;23.80;95.40
19363;DHT22;9817;50.80926400;5.16316200;2023-05-01T13:31:21;23.90;95.00
19363;DHT22;9817;50.80926400;5.16316200;2023-05-01T13:33:50;23.70;94.70
19363;DHT22;9817;50.80926400;5.16316200;2023-05-01T13:36:16;23.40;94.70
19363;DHT22;9817;50.80926400;5.16316200;2023-05-01T13:38:44;23.70;95.00
19363;DHT22;9817;50.80926400;5.16316200;2023-05-01T13:41:18;23.90;96.00
19363;DHT22;9817;50.80926400;5.16316200;2023-05-01T13:43:48;24.00;94.30
19363;DHT22;9817;50.80926400;5.16316200;2023-05-01T13:46:15;24.20;92.40
19363;DHT22;9817;50.80926400;5.16316200;2023-05-01T13:48:42;24.00;93.30
19363;DHT22;9817;50.80926400;5.16316200;2023-05-01T13:51:09;23.90;93.00
19363;DHT22;9817;50.80926400;5.16316200;2023-05-01T13:53:36;23.40;93.30
19363;DHT22;9817;50.80926400;5.16316200;2023-05-01T13:56:03;22.50;94.90
19363;DHT22;9817;50.80926400;5.16316200;2023-05-01T13:58:30;22.30;95.50
19363;DHT22;9817;50.80926400;5.16316200;2023-05-01T14:00:55;22.20;96.20
19363;DHT22;9817;50.80926400;5.16316200;2023-05-01T14:03:21;22.10;96.40
19363;DHT22;9817;50.80926400;5.16316200;2023-05-01T14:05:47;21.80;96.70
19363;DHT22;9817;50.80926400;5.16316200;2023-05-01T14:08:13;21.40;97.00